Kaohsiung International Airport

Airport
ICAO code: 
RCKH
IATA Code: 
KHH
Summary
ICAO Region: 
APAC
Territory: 
Location: 
Kaohsiung City,
Serving: 
Kaohsiung City
Elevation: 
30 ft
Coordinates: 
Aerial View: 
22° 34' 30.26" N, 120° 21' 1.103" E
Metar
Observation
RCKH 190800Z 32009KT 8000 FEW022 SCT100 24/16 Q1013 NOSIG RMK A2994
Station
Kaohsiung International Airport
Date/Time
2022-01-19 08:00:00
Wind direction
320°
Wind speed
09 kts
Lowest cloud amount
few clouds
Temperature
24°C
Dew point
16°C
Humidity
60%
QNH
1013 hPa
Weather condition
n/a

Description

Kaohsiung International Airport, also known as Kaohsiung Siaogang Airport for the Siaogang District where it is located, is a medium-sized commercial airport located in Kaohsiung City, Taiwan.

Climatology

Tropical Savanna climate (Köppen climate classification Aw) - monthly mean temperature above 18°C in every month of the year and a pronounced dry season.

Runways

Designator Length Width Surface Rops
9/27 3150 60 CON Yes/Yes
Airport map: 
Aerial View: 

SKYbrary Partners:

Safety knowledge contributed by: